sensor_id;sensor_type;location;lat;lon;timestamp;temperature;humidity
32147;DHT22;32190;49.112;8.598;2023-07-02T00:06:02;23.20;56.00
32147;DHT22;32190;49.112;8.598;2023-07-02T00:12:00;23.10;55.90
32147;DHT22;32190;49.112;8.598;2023-07-02T00:17:50;23.00;56.10
32147;DHT22;32190;49.112;8.598;2023-07-02T00:23:41;23.00;56.00
32147;DHT22;32190;49.112;8.598;2023-07-02T00:29:32;23.00;56.30
32147;DHT22;32190;49.112;8.598;2023-07-02T00:35:23;22.90;56.10
32147;DHT22;32190;49.112;8.598;2023-07-02T00:41:23;22.90;56.10
32147;DHT22;32190;49.112;8.598;2023-07-02T00:47:21;22.90;56.80
32147;DHT22;32190;49.112;8.598;2023-07-02T00:53:42;22.90;56.30
32147;DHT22;32190;49.112;8.598;2023-07-02T01:00:16;22.90;56.40
32147;DHT22;32190;49.112;8.598;2023-07-02T01:06:26;22.90;56.60
32147;DHT22;32190;49.112;8.598;2023-07-02T01:18:47;22.80;56.50
32147;DHT22;32190;49.112;8.598;2023-07-02T01:25:05;22.80;56.70
32147;DHT22;32190;49.112;8.598;2023-07-02T01:30:56;22.80;56.40
32147;DHT22;32190;49.112;8.598;2023-07-02T01:36:50;22.80;56.40
32147;DHT22;32190;49.112;8.598;2023-07-02T01:42:40;22.80;56.50
32147;DHT22;32190;49.112;8.598;2023-07-02T01:48:31;22.80;56.50
32147;DHT22;32190;49.112;8.598;2023-07-02T01:54:27;22.80;56.40
32147;DHT22;32190;49.112;8.598;2023-07-02T02:00:18;22.80;56.50
32147;DHT22;32190;49.112;8.598;2023-07-02T02:06:08;22.70;56.20
32147;DHT22;32190;49.112;8.598;2023-07-02T02:11:59;22.70;56.10
32147;DHT22;32190;49.112;8.598;2023-07-02T02:17:50;22.70;55.60
32147;DHT22;32190;49.112;8.598;2023-07-02T02:23:41;22.60;54.80
32147;DHT22;32190;49.112;8.598;2023-07-02T02:29:32;22.60;54.80
32147;DHT22;32190;49.112;8.598;2023-07-02T02:35:25;22.50;54.60
32147;DHT22;32190;49.112;8.598;2023-07-02T02:41:16;22.50;54.40
32147;DHT22;32190;49.112;8.598;2023-07-02T02:47:07;22.60;54.20
32147;DHT22;32190;49.112;8.598;2023-07-02T02:53:00;22.60;53.90
32147;DHT22;32190;49.112;8.598;2023-07-02T02:58:50;22.60;53.50
32147;DHT22;32190;49.112;8.598;2023-07-02T03:04:41;22.70;53.40
32147;DHT22;32190;49.112;8.598;2023-07-02T03:10:34;22.70;53.30
32147;DHT22;32190;49.112;8.598;2023-07-02T03:16:28;22.70;53.20
32147;DHT22;32190;49.112;8.598;2023-07-02T03:22:19;22.60;53.20
32147;DHT22;32190;49.112;8.598;2023-07-02T03:28:09;22.60;53.10
32147;DHT22;32190;49.112;8.598;2023-07-02T03:34:05;22.60;53.20
32147;DHT22;32190;49.112;8.598;2023-07-02T03:39:56;22.50;53.30
32147;DHT22;32190;49.112;8.598;2023-07-02T03:45:49;22.50;53.40
32147;DHT22;32190;49.112;8.598;2023-07-02T03:51:39;22.40;53.40
32147;DHT22;32190;49.112;8.598;2023-07-02T03:57:30;22.30;53.30
32147;DHT22;32190;49.112;8.598;2023-07-02T04:03:20;22.30;53.40
32147;DHT22;32190;49.112;8.598;2023-07-02T04:09:11;22.30;53.40
32147;DHT22;32190;49.112;8.598;2023-07-02T04:15:02;22.20;53.50
32147;DHT22;32190;49.112;8.598;2023-07-02T04:20:53;22.20;53.50
32147;DHT22;32190;49.112;8.598;2023-07-02T04:26:44;22.10;53.50
32147;DHT22;32190;49.112;8.598;2023-07-02T04:32:35;22.10;53.60
32147;DHT22;32190;49.112;8.598;2023-07-02T04:38:26;22.10;53.80
32147;DHT22;32190;49.112;8.598;2023-07-02T04:44:20;22.10;53.80
32147;DHT22;32190;49.112;8.598;2023-07-02T04:50:47;22.10;54.00
32147;DHT22;32190;49.112;8.598;2023-07-02T04:56:55;22.10;54.00
32147;DHT22;32190;49.112;8.598;2023-07-02T05:03:11;22.10;54.10
32147;DHT22;32190;49.112;8.598;2023-07-02T05:09:09;22.10;54.00
32147;DHT22;32190;49.112;8.598;2023-07-02T05:15:05;22.20;54.00
32147;DHT22;32190;49.112;8.598;2023-07-02T05:20:56;22.40;54.30
32147;DHT22;32190;49.112;8.598;2023-07-02T05:26:47;22.70;54.30
32147;DHT22;32190;49.112;8.598;2023-07-02T05:32:38;23.00;53.60
32147;DHT22;32190;49.112;8.598;2023-07-02T05:38:29;23.30;53.30
32147;DHT22;32190;49.112;8.598;2023-07-02T05:44:20;23.60;52.30
32147;DHT22;32190;49.112;8.598;2023-07-02T05:50:11;23.70;51.70
32147;DHT22;32190;49.112;8.598;2023-07-02T05:56:01;23.60;51.30
32147;DHT22;32190;49.112;8.598;2023-07-02T06:01:52;23.40;51.20
32147;DHT22;32190;49.112;8.598;2023-07-02T06:07:43;23.30;51.30
32147;DHT22;32190;49.112;8.598;2023-07-02T06:13:33;23.30;51.40
32147;DHT22;32190;49.112;8.598;2023-07-02T06:19:24;23.40;51.40
32147;DHT22;32190;49.112;8.598;2023-07-02T06:25:14;23.90;52.00
32147;DHT22;32190;49.112;8.598;2023-07-02T06:31:05;24.40;51.10
32147;DHT22;32190;49.112;8.598;2023-07-02T06:36:56;24.70;50.20
32147;DHT22;32190;49.112;8.598;2023-07-02T06:42:46;25.00;50.10
32147;DHT22;32190;49.112;8.598;2023-07-02T06:48:37;25.50;49.90
32147;DHT22;32190;49.112;8.598;2023-07-02T06:54:27;26.00;49.30
32147;DHT22;32190;49.112;8.598;2023-07-02T07:00:18;26.70;48.90
32147;DHT22;32190;49.112;8.598;2023-07-02T07:06:09;27.30;48.00
32147;DHT22;32190;49.112;8.598;2023-07-02T07:11:59;27.60;47.20
32147;DHT22;32190;49.112;8.598;2023-07-02T07:17:50;27.80;46.50
32147;DHT22;32190;49.112;8.598;2023-07-02T07:23:41;27.70;46.20
32147;DHT22;32190;49.112;8.598;2023-07-02T07:29:31;27.60;46.00
32147;DHT22;32190;49.112;8.598;2023-07-02T07:35:25;27.40;44.60
32147;DHT22;32190;49.112;8.598;2023-07-02T07:41:15;27.20;44.20
32147;DHT22;32190;49.112;8.598;2023-07-02T07:47:15;27.00;45.00
32147;DHT22;32190;49.112;8.598;2023-07-02T07:53:05;26.80;43.70
32147;DHT22;32190;49.112;8.598;2023-07-02T07:58:56;26.40;43.10
32147;DHT22;32190;49.112;8.598;2023-07-02T08:04:47;26.10;43.50
32147;DHT22;32190;49.112;8.598;2023-07-02T08:10:37;25.80;43.30
32147;DHT22;32190;49.112;8.598;2023-07-02T08:16:28;25.60;44.00
32147;DHT22;32190;49.112;8.598;2023-07-02T08:22:18;25.50;44.10
32147;DHT22;32190;49.112;8.598;2023-07-02T08:28:09;25.30;43.90
32147;DHT22;32190;49.112;8.598;2023-07-02T08:34:00;25.30;43.90
32147;DHT22;32190;49.112;8.598;2023-07-02T08:39:51;25.20;44.10
32147;DHT22;32190;49.112;8.598;2023-07-02T08:45:42;25.10;44.20
32147;DHT22;32190;49.112;8.598;2023-07-02T08:51:33;25.10;44.20
32147;DHT22;32190;49.112;8.598;2023-07-02T08:57:24;25.00;44.00
32147;DHT22;32190;49.112;8.598;2023-07-02T09:03:15;25.00;44.30
32147;DHT22;32190;49.112;8.598;2023-07-02T09:09:09;25.00;44.40
32147;DHT22;32190;49.112;8.598;2023-07-02T09:15:03;25.00;43.70
32147;DHT22;32190;49.112;8.598;2023-07-02T09:20:56;24.90;43.90
32147;DHT22;32190;49.112;8.598;2023-07-02T09:26:53;24.90;44.00
32147;DHT22;32190;49.112;8.598;2023-07-02T09:32:44;24.80;43.50
32147;DHT22;32190;49.112;8.598;2023-07-02T09:38:35;24.80;44.10
32147;DHT22;32190;49.112;8.598;2023-07-02T09:44:33;24.90;43.90
32147;DHT22;32190;49.112;8.598;2023-07-02T09:50:24;24.90;43.80
32147;DHT22;32190;49.112;8.598;2023-07-02T09:56:15;25.00;43.70
32147;DHT22;32190;49.112;8.598;2023-07-02T10:02:07;25.10;43.40
32147;DHT22;32190;49.112;8.598;2023-07-02T10:08:15;25.30;43.60
32147;DHT22;32190;49.112;8.598;2023-07-02T10:14:08;25.40;43.70
32147;DHT22;32190;49.112;8.598;2023-07-02T10:20:03;25.60;42.80
32147;DHT22;32190;49.112;8.598;2023-07-02T10:26:19;25.70;43.10
32147;DHT22;32190;49.112;8.598;2023-07-02T10:32:08;25.70;42.90
32147;DHT22;32190;49.112;8.598;2023-07-02T10:37:59;25.70;42.70
32147;DHT22;32190;49.112;8.598;2023-07-02T10:43:50;25.80;42.80
32147;DHT22;32190;49.112;8.598;2023-07-02T10:49:43;25.80;42.90
32147;DHT22;32190;49.112;8.598;2023-07-02T10:55:36;25.90;42.40
32147;DHT22;32190;49.112;8.598;2023-07-02T11:02:26;26.00;42.10
32147;DHT22;32190;49.112;8.598;2023-07-02T11:08:34;26.10;42.30
32147;DHT22;32190;49.112;8.598;2023-07-02T11:14:36;26.20;42.50
32147;DHT22;32190;49.112;8.598;2023-07-02T11:20:39;26.20;41.20
32147;DHT22;32190;49.112;8.598;2023-07-02T11:26:40;26.20;41.40
32147;DHT22;32190;49.112;8.598;2023-07-02T11:32:55;26.10;41.40
32147;DHT22;32190;49.112;8.598;2023-07-02T11:38:45;26.20;41.40
32147;DHT22;32190;49.112;8.598;2023-07-02T11:44:36;26.40;42.00
32147;DHT22;32190;49.112;8.598;2023-07-02T11:50:27;26.40;41.50
32147;DHT22;32190;49.112;8.598;2023-07-02T11:56:21;26.50;41.40
32147;DHT22;32190;49.112;8.598;2023-07-02T12:02:11;26.60;41.70
32147;DHT22;32190;49.112;8.598;2023-07-02T12:08:05;26.70;41.10
32147;DHT22;32190;49.112;8.598;2023-07-02T12:14:06;26.80;40.90
32147;DHT22;32190;49.112;8.598;2023-07-02T12:20:15;26.90;40.90
32147;DHT22;32190;49.112;8.598;2023-07-02T12:26:14;27.00;40.40
32147;DHT22;32190;49.112;8.598;2023-07-02T12:32:05;27.10;40.90
32147;DHT22;32190;49.112;8.598;2023-07-02T12:37:55;27.20;40.40
32147;DHT22;32190;49.112;8.598;2023-07-02T12:43:49;27.30;39.70
32147;DHT22;32190;49.112;8.598;2023-07-02T12:49:40;27.50;39.90
32147;DHT22;32190;49.112;8.598;2023-07-02T12:55:38;27.70;40.20
32147;DHT22;32190;49.112;8.598;2023-07-02T13:01:32;28.00;40.20
32147;DHT22;32190;49.112;8.598;2023-07-02T13:07:26;28.20;39.50
32147;DHT22;32190;49.112;8.598;2023-07-02T13:25:21;28.40;38.60
32147;DHT22;32190;49.112;8.598;2023-07-02T13:38:55;28.40;37.90
32147;DHT22;32190;49.112;8.598;2023-07-02T13:44:45;28.50;38.10
32147;DHT22;32190;49.112;8.598;2023-07-02T13:50:36;28.60;37.90
32147;DHT22;32190;49.112;8.598;2023-07-02T13:56:27;28.70;37.10
32147;DHT22;32190;49.112;8.598;2023-07-02T14:02:17;28.80;36.80
32147;DHT22;32190;49.112;8.598;2023-07-02T14:08:10;28.80;37.20
32147;DHT22;32190;49.112;8.598;2023-07-02T14:14:42;28.90;37.20
32147;DHT22;32190;49.112;8.598;2023-07-02T14:21:18;29.00;35.50
32147;DHT22;32190;49.112;8.598;2023-07-02T14:27:50;29.10;35.80
32147;DHT22;32190;49.112;8.598;2023-07-02T14:34:22;29.20;34.60
32147;DHT22;32190;49.112;8.598;2023-07-02T14:53:20;29.80;34.70
32147;DHT22;32190;49.112;8.598;2023-07-02T15:55:35;30.90;33.90
32147;DHT22;32190;49.112;8.598;2023-07-02T16:01:26;31.00;33.40
32147;DHT22;32190;49.112;8.598;2023-07-02T16:07:17;31.00;33.20
32147;DHT22;32190;49.112;8.598;2023-07-02T16:13:13;30.90;33.60
32147;DHT22;32190;49.112;8.598;2023-07-02T16:19:04;30.90;33.00
32147;DHT22;32190;49.112;8.598;2023-07-02T16:30:55;30.70;33.70
32147;DHT22;32190;49.112;8.598;2023-07-02T16:36:46;30.50;32.40
32147;DHT22;32190;49.112;8.598;2023-07-02T16:42:37;30.20;32.40
32147;DHT22;32190;49.112;8.598;2023-07-02T16:48:27;30.10;32.50
32147;DHT22;32190;49.112;8.598;2023-07-02T16:54:19;30.00;33.30
32147;DHT22;32190;49.112;8.598;2023-07-02T17:00:10;30.00;33.00
32147;DHT22;32190;49.112;8.598;2023-07-02T17:06:04;30.10;32.90
32147;DHT22;32190;49.112;8.598;2023-07-02T17:11:56;30.20;32.50
32147;DHT22;32190;49.112;8.598;2023-07-02T17:17:47;30.10;32.50
32147;DHT22;32190;49.112;8.598;2023-07-02T17:23:37;30.10;33.30
32147;DHT22;32190;49.112;8.598;2023-07-02T17:29:28;30.10;33.10
32147;DHT22;32190;49.112;8.598;2023-07-02T17:35:21;30.20;33.10
32147;DHT22;32190;49.112;8.598;2023-07-02T17:41:12;30.10;32.80
32147;DHT22;32190;49.112;8.598;2023-07-02T17:47:05;29.90;32.90
32147;DHT22;32190;49.112;8.598;2023-07-02T17:52:56;29.70;33.40
32147;DHT22;32190;49.112;8.598;2023-07-02T17:58:47;29.60;33.50
32147;DHT22;32190;49.112;8.598;2023-07-02T18:04:38;29.50;33.30
32147;DHT22;32190;49.112;8.598;2023-07-02T18:10:29;29.40;33.20
32147;DHT22;32190;49.112;8.598;2023-07-02T18:16:22;29.20;33.40
32147;DHT22;32190;49.112;8.598;2023-07-02T18:22:12;29.10;34.00
32147;DHT22;32190;49.112;8.598;2023-07-02T18:28:12;29.10;34.10
32147;DHT22;32190;49.112;8.598;2023-07-02T18:34:03;29.00;33.20
32147;DHT22;32190;49.112;8.598;2023-07-02T18:39:53;28.90;33.50
32147;DHT22;32190;49.112;8.598;2023-07-02T18:45:50;28.80;33.60
32147;DHT22;32190;49.112;8.598;2023-07-02T18:51:41;28.70;33.60
32147;DHT22;32190;49.112;8.598;2023-07-02T18:57:32;28.70;33.90
32147;DHT22;32190;49.112;8.598;2023-07-02T19:03:25;28.60;33.60
32147;DHT22;32190;49.112;8.598;2023-07-02T19:09:21;28.40;33.70
32147;DHT22;32190;49.112;8.598;2023-07-02T19:15:32;28.30;34.20
32147;DHT22;32190;49.112;8.598;2023-07-02T19:21:23;28.30;34.60
32147;DHT22;32190;49.112;8.598;2023-07-02T19:27:15;28.20;34.80
32147;DHT22;32190;49.112;8.598;2023-07-02T19:33:06;28.20;35.20
32147;DHT22;32190;49.112;8.598;2023-07-02T19:38:56;28.30;35.40
32147;DHT22;32190;49.112;8.598;2023-07-02T19:44:56;28.40;35.40
32147;DHT22;32190;49.112;8.598;2023-07-02T19:50:46;28.40;35.40
32147;DHT22;32190;49.112;8.598;2023-07-02T19:56:37;28.40;35.60
32147;DHT22;32190;49.112;8.598;2023-07-02T20:02:28;28.40;35.30
32147;DHT22;32190;49.112;8.598;2023-07-02T20:08:19;28.40;35.40
32147;DHT22;32190;49.112;8.598;2023-07-02T20:14:09;28.20;35.40
32147;DHT22;32190;49.112;8.598;2023-07-02T20:20:00;28.00;35.50
32147;DHT22;32190;49.112;8.598;2023-07-02T20:25:51;27.90;35.80
32147;DHT22;32190;49.112;8.598;2023-07-02T20:31:41;27.80;36.00
32147;DHT22;32190;49.112;8.598;2023-07-02T20:37:33;27.70;36.00
32147;DHT22;32190;49.112;8.598;2023-07-02T20:43:24;27.70;36.20
32147;DHT22;32190;49.112;8.598;2023-07-02T20:49:16;27.60;36.50
32147;DHT22;32190;49.112;8.598;2023-07-02T20:55:08;27.60;36.50
32147;DHT22;32190;49.112;8.598;2023-07-02T21:01:06;27.50;36.40
32147;DHT22;32190;49.112;8.598;2023-07-02T21:06:57;27.40;36.60
32147;DHT22;32190;49.112;8.598;2023-07-02T21:12:47;27.30;36.60
32147;DHT22;32190;49.112;8.598;2023-07-02T21:18:38;27.10;36.80
32147;DHT22;32190;49.112;8.598;2023-07-02T21:24:28;27.00;37.00
32147;DHT22;32190;49.112;8.598;2023-07-02T21:30:19;26.90;36.90
32147;DHT22;32190;49.112;8.598;2023-07-02T21:36:10;26.90;37.00
32147;DHT22;32190;49.112;8.598;2023-07-02T21:42:01;26.80;37.10
32147;DHT22;32190;49.112;8.598;2023-07-02T21:47:51;26.80;37.30
32147;DHT22;32190;49.112;8.598;2023-07-02T21:53:42;26.80;37.30
32147;DHT22;32190;49.112;8.598;2023-07-02T21:59:32;26.70;37.00
32147;DHT22;32190;49.112;8.598;2023-07-02T22:05:23;26.60;37.00
32147;DHT22;32190;49.112;8.598;2023-07-02T22:11:15;26.60;37.10
32147;DHT22;32190;49.112;8.598;2023-07-02T22:17:05;26.50;37.00
32147;DHT22;32190;49.112;8.598;2023-07-02T22:23:00;26.30;37.30
32147;DHT22;32190;49.112;8.598;2023-07-02T22:28:50;26.30;37.50
32147;DHT22;32190;49.112;8.598;2023-07-02T22:34:42;26.20;37.40
32147;DHT22;32190;49.112;8.598;2023-07-02T22:40:33;26.10;37.70
32147;DHT22;32190;49.112;8.598;2023-07-02T22:46:24;26.00;37.50
32147;DHT22;32190;49.112;8.598;2023-07-02T22:52:14;26.00;37.60
32147;DHT22;32190;49.112;8.598;2023-07-02T22:58:07;25.90;37.80
32147;DHT22;32190;49.112;8.598;2023-07-02T23:03:58;25.90;37.90
32147;DHT22;32190;49.112;8.598;2023-07-02T23:09:49;25.80;37.70
32147;DHT22;32190;49.112;8.598;2023-07-02T23:15:39;25.80;37.80
32147;DHT22;32190;49.112;8.598;2023-07-02T23:21:30;25.70;38.00
32147;DHT22;32190;49.112;8.598;2023-07-02T23:27:20;25.70;38.20
32147;DHT22;32190;49.112;8.598;2023-07-02T23:33:11;25.70;38.00
32147;DHT22;32190;49.112;8.598;2023-07-02T23:39:02;25.60;38.10
32147;DHT22;32190;49.112;8.598;2023-07-02T23:44:55;25.60;38.10
32147;DHT22;32190;49.112;8.598;2023-07-02T23:50:46;25.50;38.00
32147;DHT22;32190;49.112;8.598;2023-07-02T23:56:37;25.50;38.00
